Time;durP1;ratioP1;P1;durP2;ratioP2;P2;SDS_P1;SDS_P2;PMS_P1;PMS_P2;Temp;Humidity;BMP_temperature;BMP_pressure;BME280_temperature;BME280_humidity;BME280_pressure;Samples;Min_cycle;Max_cycle;Signal;HPM_P1;HPM_P2
2021/10/26 00:01:02;;;;;;;16.13;14.13;;;;;;;2.76;100.00;98426.72;4974783;28;21061;-70
2021/10/26 00:03:31;;;;;;;16.17;14.57;;;;;;;2.77;100.00;98427.56;5019483;28;20203;-70
2021/10/26 00:05:59;;;;;;;16.87;15.07;;;;;;;2.73;100.00;98433.00;4969151;28;20236;-70
2021/10/26 00:08:27;;;;;;;16.37;14.60;;;;;;;2.68;100.00;98431.63;4999449;28;20405;-70
2021/10/26 00:10:55;;;;;;;15.47;13.87;;;;;;;2.64;100.00;98430.16;4999268;28;20226;-70
2021/10/26 00:13:23;;;;;;;17.30;15.43;;;;;;;2.59;100.00;98436.56;4999858;28;21024;-70
2021/10/26 00:15:53;;;;;;;17.83;15.40;;;;;;;2.53;100.00;98433.50;5022565;28;20830;-70
2021/10/26 00:18:22;;;;;;;16.00;14.27;;;;;;;2.48;100.00;98438.19;5024153;28;20273;-70
2021/10/26 00:20:50;;;;;;;16.00;13.23;;;;;;;2.43;100.00;98435.88;4990386;28;20433;-70
2021/10/26 00:23:18;;;;;;;14.30;12.97;;;;;;;2.34;100.00;98437.34;5017075;28;20219;-70
2021/10/26 00:25:46;;;;;;;16.83;13.87;;;;;;;2.31;100.00;98441.00;5004909;28;20438;-70
2021/10/26 00:28:14;;;;;;;15.97;14.00;;;;;;;2.25;100.00;98441.41;5002437;28;20211;-70
2021/10/26 00:30:42;;;;;;;15.63;14.03;;;;;;;2.21;100.00;98442.53;5010311;28;20307;-70
2021/10/26 00:33:10;;;;;;;15.33;13.90;;;;;;;2.23;100.00;98439.81;5013068;28;20212;-70
2021/10/26 00:35:40;;;;;;;15.10;13.63;;;;;;;2.14;100.00;98442.09;4982956;28;20882;-70
2021/10/26 00:38:08;;;;;;;16.80;15.03;;;;;;;2.24;100.00;98450.19;5014973;28;20208;-70
2021/10/26 00:40:36;;;;;;;17.07;14.77;;;;;;;2.18;100.00;98447.97;5022324;28;20451;-70
2021/10/26 00:43:04;;;;;;;14.63;13.03;;;;;;;2.11;100.00;98451.94;5000086;28;20661;-70
2021/10/26 00:45:32;;;;;;;16.73;14.87;;;;;;;2.11;100.00;98452.75;5014248;28;20231;-70
2021/10/26 00:48:00;;;;;;;15.97;14.30;;;;;;;2.09;100.00;98454.63;5023392;28;20212;-70
2021/10/26 00:50:28;;;;;;;15.43;13.83;;;;;;;2.20;100.00;98455.69;4978582;28;20246;-71
2021/10/26 00:52:57;;;;;;;15.67;14.03;;;;;;;2.20;100.00;98458.31;5017438;28;20216;-70
2021/10/26 00:55:26;;;;;;;15.90;14.33;;;;;;;2.17;100.00;98454.13;5016968;28;20316;-70
2021/10/26 00:57:54;;;;;;;16.23;14.60;;;;;;;2.15;100.00;98450.78;5006654;28;20205;-70
2021/10/26 01:00:23;;;;;;;20.87;16.47;;;;;;;2.04;100.00;98451.47;5013162;28;20207;-70
2021/10/26 01:02:51;;;;;;;16.73;14.27;;;;;;;2.13;100.00;98450.03;5014752;28;20210;-70
2021/10/26 01:05:19;;;;;;;15.03;13.63;;;;;;;2.13;100.00;98445.63;5016361;28;20228;-70
2021/10/26 01:07:47;;;;;;;15.63;14.10;;;;;;;2.03;100.00;98444.56;4985728;28;20419;-70
2021/10/26 01:10:16;;;;;;;17.53;15.07;;;;;;;1.87;100.00;98442.09;5010667;28;20231;-70
2021/10/26 01:12:45;;;;;;;15.73;14.13;;;;;;;1.83;100.00;98448.44;5008988;28;20314;-70
2021/10/26 01:15:13;;;;;;;17.07;15.23;;;;;;;1.77;100.00;98454.91;5017091;28;20733;-70
2021/10/26 01:17:41;;;;;;;15.00;13.40;;;;;;;1.76;100.00;98457.63;5016360;28;20616;-70
2021/10/26 01:20:11;;;;;;;16.10;14.43;;;;;;;1.74;100.00;98455.09;5021946;28;20220;-71
2021/10/26 01:22:42;;;;;;;17.20;13.67;;;;;;;1.72;100.00;98452.59;4985333;28;20842;-71
2021/10/26 01:25:11;;;;;;;15.17;13.43;;;;;;;1.75;100.00;98461.19;5015079;28;20243;-71
2021/10/26 01:27:41;;;;;;;17.07;14.80;;;;;;;1.69;100.00;98455.38;5013941;28;21004;-71
2021/10/26 01:30:11;;;;;;;17.83;15.50;;;;;;;1.77;100.00;98449.66;5008712;28;20236;-71
2021/10/26 01:32:39;;;;;;;13.97;12.77;;;;;;;1.70;100.00;98449.22;5015866;28;20479;-70
2021/10/26 01:35:08;;;;;;;17.07;14.93;;;;;;;1.62;100.00;98455.88;5017624;28;20215;-71
2021/10/26 01:37:37;;;;;;;15.37;13.87;;;;;;;1.55;100.00;98455.41;4984389;28;21169;-71
2021/10/26 01:40:06;;;;;;;16.10;14.47;;;;;;;1.53;100.00;98452.91;5003550;28;20654;-71
2021/10/26 01:42:34;;;;;;;16.03;14.20;;;;;;;1.58;100.00;98457.81;5009955;28;20253;-70
2021/10/26 01:45:02;;;;;;;16.53;14.60;;;;;;;1.63;100.00;98450.53;5004727;28;20212;-69
2021/10/26 01:47:30;;;;;;;17.07;15.27;;;;;;;1.64;100.00;98454.81;5004260;28;20420;-70
2021/10/26 01:49:58;;;;;;;14.90;13.53;;;;;;;1.59;100.00;98443.81;5018104;28;20683;-71
2021/10/26 01:52:26;;;;;;;14.70;13.20;;;;;;;1.58;100.00;98443.00;5015147;28;20231;-71
2021/10/26 01:54:55;;;;;;;18.10;15.53;;;;;;;1.52;100.00;98455.59;4983740;28;20212;-71
2021/10/26 01:57:26;;;;;;;15.63;13.97;;;;;;;1.50;100.00;98449.63;5005020;28;20231;-69
2021/10/26 01:59:56;;;;;;;15.60;14.07;;;;;;;1.46;100.00;98450.75;5013598;28;20608;-71
2021/10/26 02:02:24;;;;;;;15.57;13.47;;;;;;;1.34;100.00;98453.19;5006451;28;20826;-73
2021/10/26 02:04:53;;;;;;;16.93;14.47;;;;;;;1.30;100.00;98460.38;5010493;28;20208;-69
2021/10/26 02:07:21;;;;;;;17.67;15.00;;;;;;;1.38;100.00;98457.31;5009770;28;20506;-72
2021/10/26 02:09:49;;;;;;;16.47;14.67;;;;;;;1.37;100.00;98455.63;4981810;28;20236;-70
2021/10/26 02:12:20;;;;;;;16.30;13.07;;;;;;;1.28;100.00;98467.47;4979655;28;20594;-70
2021/10/26 02:14:48;;;;;;;16.30;14.50;;;;;;;1.27;100.00;98467.53;5011195;28;20204;-70
2021/10/26 02:17:16;;;;;;;16.90;13.67;;;;;;;1.23;100.00;98472.13;5014368;28;20208;-70
2021/10/26 02:19:44;;;;;;;16.03;14.20;;;;;;;1.16;100.00;98468.22;5011090;28;20511;-70
2021/10/26 02:22:12;;;;;;;16.33;14.73;;;;;;;1.18;100.00;98475.94;5001522;28;20209;-71
2021/10/26 02:24:39;;;;;;;16.00;14.23;;;;;;;1.11;100.00;98468.47;5012420;28;20434;-70
2021/10/26 02:27:07;;;;;;;16.30;14.70;;;;;;;1.11;100.00;98465.03;4981140;28;20697;-70
2021/10/26 02:29:37;;;;;;;15.87;14.17;;;;;;;1.08;100.00;98468.66;5008532;28;20485;-70
2021/10/26 02:32:06;;;;;;;15.77;14.27;;;;;;;1.01;100.00;98462.16;4996400;28;20857;-70
2021/10/26 02:34:34;;;;;;;16.43;14.53;;;;;;;0.99;100.00;98474.44;5011318;28;20428;-69
2021/10/26 02:37:02;;;;;;;16.20;13.67;;;;;;;0.98;100.00;98475.38;5009005;28;20233;-70
2021/10/26 02:39:30;;;;;;;15.47;13.93;;;;;;;0.93;100.00;98472.19;5007169;28;20200;-70
2021/10/26 02:41:58;;;;;;;17.23;15.43;;;;;;;0.98;100.00;98478.81;5014411;28;20208;-70
2021/10/26 02:44:33;;;;;;;17.27;13.83;;;;;;;1.03;100.00;98478.56;4977880;28;20445;-70
2021/10/26 02:47:06;;;;;;;16.37;14.63;;;;;;;1.03;100.00;98472.47;5015606;28;20232;-70
2021/10/26 02:49:35;;;;;;;17.87;15.57;;;;;;;1.01;100.00;98468.19;5009018;28;20721;-70
2021/10/26 02:52:03;;;;;;;15.00;13.53;;;;;;;1.00;100.00;98470.91;5016847;28;20309;-70
2021/10/26 02:54:31;;;;;;;16.80;14.20;;;;;;;1.01;100.00;98478.63;5007737;28;20548;-71
2021/10/26 02:56:59;;;;;;;15.67;13.93;;;;;;;0.96;100.00;98480.69;5014874;28;20278;-70
2021/10/26 02:59:28;;;;;;;16.00;14.40;;;;;;;0.97;100.00;98482.34;4978131;28;20429;-71
2021/10/26 03:01:59;;;;;;;17.37;14.80;;;;;;;0.91;100.00;98487.94;5013571;28;20597;-70
2021/10/26 03:04:29;;;;;;;17.33;14.50;;;;;;;0.92;100.00;98488.78;5009016;28;20674;-71
2021/10/26 03:06:57;;;;;;;18.07;14.20;;;;;;;0.90;100.00;98490.63;5012048;28;20231;-70
2021/10/26 03:09:25;;;;;;;16.17;14.57;;;;;;;0.87;100.00;98496.88;5009339;28;20692;-69
2021/10/26 03:11:53;;;;;;;17.57;14.80;;;;;;;0.97;100.00;98495.41;5010366;28;20224;-70
2021/10/26 03:14:21;;;;;;;15.30;13.80;;;;;;;0.92;100.00;98496.59;4978092;28;20216;-70
2021/10/26 03:16:49;;;;;;;16.50;14.90;;;;;;;0.93;100.00;98503.50;5013771;28;20228;-70
2021/10/26 03:19:17;;;;;;;15.27;13.77;;;;;;;0.90;100.00;98495.84;5016165;28;20204;-70
2021/10/26 03:21:46;;;;;;;19.43;14.67;;;;;;;0.85;100.00;98507.41;5014541;28;20211;-70
2021/10/26 03:24:14;;;;;;;16.57;14.87;;;;;;;0.91;100.00;98503.59;5018599;28;20734;-70
2021/10/26 03:26:42;;;;;;;17.10;14.37;;;;;;;0.89;100.00;98502.00;5012981;28;20428;-70
2021/10/26 03:29:10;;;;;;;14.20;12.70;;;;;;;0.85;100.00;98514.41;4984683;28;20568;-70
2021/10/26 03:31:38;;;;;;;16.10;14.30;;;;;;;0.84;100.00;98512.72;5011368;28;20406;-70
2021/10/26 03:34:06;;;;;;;15.37;13.87;;;;;;;0.91;100.00;98518.41;5014773;28;20204;-70
2021/10/26 03:36:34;;;;;;;16.87;14.23;;;;;;;0.94;100.00;98515.63;4996091;28;20619;-70
2021/10/26 03:39:04;;;;;;;15.00;13.50;;;;;;;0.93;100.00;98521.75;5012410;28;20212;-70
2021/10/26 03:41:32;;;;;;;15.57;13.80;;;;;;;0.98;100.00;98522.38;5011754;28;20212;-70
2021/10/26 03:44:01;;;;;;;16.70;14.90;;;;;;;1.04;100.00;98526.38;4998249;28;20208;-70
2021/10/26 03:46:29;;;;;;;16.10;14.17;;;;;;;1.06;100.00;98525.34;4994338;28;21054;-69
2021/10/26 03:48:57;;;;;;;14.67;13.27;;;;;;;1.17;100.00;98526.47;5014956;28;20208;-70
2021/10/26 03:51:25;;;;;;;18.30;14.97;;;;;;;1.11;100.00;98528.53;5010054;28;20440;-70
2021/10/26 03:53:53;;;;;;;18.17;14.20;;;;;;;1.06;100.00;98525.34;5011411;28;20574;-71
2021/10/26 03:56:22;;;;;;;16.37;14.70;;;;;;;1.15;100.00;98531.81;5009621;28;20842;-70
2021/10/26 03:58:50;;;;;;;17.67;15.33;;;;;;;1.18;100.00;98529.00;5016958;28;20211;-70
2021/10/26 04:01:20;;;;;;;16.13;14.53;;;;;;;1.24;100.00;98533.88;4977163;28;20788;-70
2021/10/26 04:03:49;;;;;;;15.73;14.33;;;;;;;1.32;100.00;98528.16;5009059;28;20298;-69
2021/10/26 04:06:19;;;;;;;15.93;14.23;;;;;;;1.40;100.00;98531.19;5006704;28;20228;-69
2021/10/26 04:08:54;;;;;;;14.73;13.23;;;;;;;1.41;100.00;98527.63;5015198;28;20626;-68
2021/10/26 04:11:24;;;;;;;15.30;13.57;;;;;;;1.47;100.00;98536.03;5015428;28;20815;-70
2021/10/26 04:13:53;;;;;;;15.97;13.57;;;;;;;1.54;100.00;98534.72;5017215;28;20287;-70
2021/10/26 04:16:21;;;;;;;17.10;15.03;;;;;;;1.56;100.00;98538.94;4975875;28;20236;-69
2021/10/26 04:18:49;;;;;;;16.33;13.80;;;;;;;1.66;100.00;98535.75;4982412;28;20266;-70
2021/10/26 04:21:17;;;;;;;17.50;15.70;;;;;;;1.71;100.00;98529.31;5015815;28;20208;-70
2021/10/26 04:23:47;;;;;;;17.03;15.23;;;;;;;1.76;100.00;98538.63;5011026;28;20210;-69
2021/10/26 04:26:16;;;;;;;17.00;15.10;;;;;;;1.80;100.00;98529.66;5013004;28;20223;-69
2021/10/26 04:28:45;;;;;;;16.90;14.93;;;;;;;1.90;100.00;98522.09;5012405;28;20815;-69
2021/10/26 04:31:15;;;;;;;16.57;14.47;;;;;;;2.01;100.00;98520.47;5012746;28;20231;-69
2021/10/26 04:33:43;;;;;;;16.00;14.47;;;;;;;2.05;100.00;98523.75;4977820;28;20330;-69
2021/10/26 04:36:11;;;;;;;15.83;13.77;;;;;;;2.21;100.00;98525.38;4995451;28;20232;-69
2021/10/26 04:38:39;;;;;;;14.93;13.43;;;;;;;2.20;100.00;98534.16;5002590;28;20204;-71
2021/10/26 04:41:09;;;;;;;17.20;14.47;;;;;;;2.19;100.00;98533.31;5010446;28;20231;-69
2021/10/26 04:43:37;;;;;;;17.17;15.20;;;;;;;2.26;100.00;98542.47;5002725;28;20247;-70
2021/10/26 04:46:07;;;;;;;18.67;14.30;;;;;;;2.29;100.00;98544.88;5012571;28;20235;-69
2021/10/26 04:48:35;;;;;;;16.13;14.43;;;;;;;2.29;100.00;98544.06;5014259;28;20511;-72
2021/10/26 04:51:03;;;;;;;16.23;14.43;;;;;;;2.35;100.00;98545.41;4980286;28;20783;-71
2021/10/26 04:53:30;;;;;;;16.17;14.53;;;;;;;2.33;100.00;98550.75;5013616;28;20213;-69
2021/10/26 04:56:03;;;;;;;17.73;15.67;;;;;;;2.44;100.00;98555.28;5013168;28;20225;-71
2021/10/26 04:58:31;;;;;;;16.40;14.10;;;;;;;2.37;100.00;98546.16;5015066;28;20595;-70
2021/10/26 05:00:59;;;;;;;15.63;13.37;;;;;;;2.39;100.00;98557.34;5002971;28;20223;-71
2021/10/26 05:03:31;;;;;;;17.10;15.03;;;;;;;2.39;100.00;98559.97;5014446;28;20795;-70
2021/10/26 05:05:59;;;;;;;17.53;15.07;;;;;;;2.40;100.00;98559.03;4985806;28;20239;-70
2021/10/26 05:08:28;;;;;;;15.30;13.80;;;;;;;2.43;100.00;98566.69;5014040;28;20200;-70
2021/10/26 05:10:55;;;;;;;16.60;14.67;;;;;;;2.50;100.00;98564.53;5014551;28;20201;-70
2021/10/26 05:13:23;;;;;;;15.60;14.00;;;;;;;2.56;100.00;98557.13;5011342;28;20228;-71
2021/10/26 05:15:51;;;;;;;18.00;15.13;;;;;;;2.56;100.00;98562.34;5017608;28;20953;-68
2021/10/26 05:18:20;;;;;;;16.17;14.53;;;;;;;2.54;100.00;98561.63;5014915;28;20227;-71
2021/10/26 05:20:50;;;;;;;17.70;15.93;;;;;;;2.52;100.00;98558.28;4985933;28;20628;-69
2021/10/26 05:23:19;;;;;;;16.27;14.53;;;;;;;2.55;100.00;98565.91;5026672;28;20207;-71
2021/10/26 05:25:49;;;;;;;16.83;15.10;;;;;;;2.69;100.00;98564.16;5018326;28;20542;-71
2021/10/26 05:28:17;;;;;;;18.70;14.70;;;;;;;2.77;100.00;98567.13;5020504;28;20318;-70
2021/10/26 05:30:45;;;;;;;15.77;14.20;;;;;;;2.77;100.00;98566.28;5015488;28;20339;-70
2021/10/26 05:33:13;;;;;;;15.43;13.93;;;;;;;2.79;100.00;98561.81;5018125;28;20223;-70
2021/10/26 05:35:41;;;;;;;15.97;14.27;;;;;;;2.85;100.00;98561.38;5013592;28;20756;-70
2021/10/26 05:38:10;;;;;;;16.40;14.77;;;;;;;2.87;100.00;98560.38;4986911;28;20220;-72
2021/10/26 05:40:38;;;;;;;16.97;14.77;;;;;;;2.98;100.00;98562.25;5010874;28;20284;-71
2021/10/26 05:43:06;;;;;;;15.40;12.80;;;;;;;2.92;100.00;98564.47;5014651;28;20205;-71
2021/10/26 05:45:34;;;;;;;17.00;14.77;;;;;;;2.96;100.00;98572.00;5017332;28;20227;-69
2021/10/26 05:48:03;;;;;;;17.13;15.43;;;;;;;3.07;100.00;98573.06;5017878;28;20212;-69
2021/10/26 05:50:31;;;;;;;16.43;14.73;;;;;;;3.05;100.00;98578.41;5011850;28;20767;-70
2021/10/26 05:52:59;;;;;;;18.93;15.20;;;;;;;3.02;100.00;98576.00;4988661;28;20228;-69
2021/10/26 05:55:28;;;;;;;16.77;14.97;;;;;;;3.11;100.00;98577.16;5020217;28;20223;-70
2021/10/26 05:57:56;;;;;;;16.73;14.43;;;;;;;3.21;100.00;98582.59;5020615;28;20227;-69
2021/10/26 06:00:25;;;;;;;17.00;14.60;;;;;;;3.15;100.00;98584.69;5018571;28;20625;-71
2021/10/26 06:02:53;;;;;;;15.23;13.67;;;;;;;3.13;100.00;98591.81;5016270;28;20211;-70
2021/10/26 06:05:22;;;;;;;17.47;15.67;;;;;;;3.12;100.00;98594.56;5014586;28;20278;-70
2021/10/26 06:07:50;;;;;;;26.53;20.33;;;;;;;3.25;100.00;98597.19;4984161;28;20216;-70
2021/10/26 06:10:18;;;;;;;20.60;17.03;;;;;;;3.32;100.00;98594.03;5022893;28;20210;-71
2021/10/26 06:12:52;;;;;;;17.60;15.70;;;;;;;3.26;100.00;98606.75;5015717;28;20580;-69
2021/10/26 06:15:20;;;;;;;15.43;13.90;;;;;;;3.38;100.00;98603.28;5012634;28;20306;-71
2021/10/26 06:17:48;;;;;;;16.77;14.07;;;;;;;3.46;100.00;98606.22;5015852;28;20671;-69
2021/10/26 06:20:16;;;;;;;18.70;14.87;;;;;;;3.49;100.00;98607.81;5018708;28;20595;-71
2021/10/26 06:22:44;;;;;;;17.10;15.33;;;;;;;3.63;100.00;98617.38;4984215;28;25416;-70
2021/10/26 06:25:13;;;;;;;17.00;15.20;;;;;;;3.63;100.00;98614.75;5024709;28;20224;-70
2021/10/26 06:27:43;;;;;;;16.00;14.37;;;;;;;3.69;100.00;98609.06;4975974;28;21037;-71
2021/10/26 06:30:12;;;;;;;15.33;13.80;;;;;;;3.70;100.00;98626.47;5011862;28;20457;-71
2021/10/26 06:32:41;;;;;;;16.83;14.37;;;;;;;3.69;100.00;98627.41;5020318;28;20219;-71
2021/10/26 06:35:09;;;;;;;18.90;14.70;;;;;;;3.69;100.00;98626.56;4993876;28;20640;-69
2021/10/26 06:37:40;;;;;;;15.53;14.03;;;;;;;3.79;100.00;98630.25;5018565;28;20204;-70
2021/10/26 06:40:10;;;;;;;15.80;14.23;;;;;;;3.87;100.00;98633.19;5011126;28;20204;-70
2021/10/26 06:42:38;;;;;;;16.70;14.67;;;;;;;3.99;100.00;98643.78;4988117;28;20303;-70
2021/10/26 06:45:09;;;;;;;17.03;15.27;;;;;;;4.12;100.00;98641.13;5017140;28;20366;-70
2021/10/26 06:47:39;;;;;;;16.37;14.77;;;;;;;4.33;100.00;98638.78;5021408;28;20219;-69
2021/10/26 06:50:08;;;;;;;16.50;14.80;;;;;;;4.43;100.00;98647.69;4991045;28;20223;-69
2021/10/26 06:52:37;;;;;;;16.70;14.93;;;;;;;4.48;100.00;98652.63;5012982;28;20236;-70
2021/10/26 06:55:06;;;;;;;17.07;15.47;;;;;;;4.61;100.00;98653.41;5016534;28;20215;-70
2021/10/26 06:57:35;;;;;;;16.87;15.07;;;;;;;4.74;100.00;98649.91;4983557;28;20858;-70
2021/10/26 07:00:05;;;;;;;20.00;16.20;;;;;;;4.83;100.00;98657.13;5016622;28;20216;-70
2021/10/26 07:02:33;;;;;;;20.77;15.60;;;;;;;4.83;100.00;98656.28;5019544;28;20300;-69
2021/10/26 07:05:07;;;;;;;17.47;15.50;;;;;;;4.92;100.00;98653.81;5007376;28;20315;-69
2021/10/26 07:07:35;;;;;;;16.00;14.30;;;;;;;4.99;100.00;98662.09;5000992;28;20209;-71
2021/10/26 07:10:04;;;;;;;16.43;14.47;;;;;;;5.05;100.00;98676.56;5021763;28;20586;-70
2021/10/26 07:12:32;;;;;;;18.70;15.07;;;;;;;5.19;100.00;98660.63;5015804;28;20862;-70
2021/10/26 07:15:02;;;;;;;15.73;13.53;;;;;;;5.20;100.00;98670.19;4988458;28;20708;-69
2021/10/26 07:17:30;;;;;;;14.90;13.30;;;;;;;5.31;100.00;98665.94;5026508;28;20203;-71
2021/10/26 07:19:57;;;;;;;15.30;13.60;;;;;;;5.34;100.00;98665.69;5000648;28;20212;-71
2021/10/26 07:22:27;;;;;;;14.67;13.23;;;;;;;5.44;100.00;98671.94;5002938;28;20223;-70
2021/10/26 07:24:58;;;;;;;15.93;14.33;;;;;;;5.53;100.00;98669.59;5013078;28;20215;-70
2021/10/26 07:27:26;;;;;;;19.70;15.13;;;;;;;5.50;100.00;98674.13;5017832;28;20215;-70
2021/10/26 07:29:54;;;;;;;16.23;14.53;;;;;;;5.55;100.00;98675.59;4982580;28;20221;-71
2021/10/26 07:32:22;;;;;;;16.00;14.50;;;;;;;5.67;100.00;98677.28;5020962;28;20204;-69
2021/10/26 07:34:50;;;;;;;16.40;12.80;;;;;;;5.70;100.00;98681.47;5008984;28;20215;-71
2021/10/26 07:37:22;;;;;;;14.93;13.33;;;;;;;5.85;100.00;98684.72;4996879;28;20239;-70
2021/10/26 07:39:52;;;;;;;15.60;13.60;;;;;;;6.04;100.00;98678.91;5013923;28;20775;-71
2021/10/26 07:42:21;;;;;;;16.60;13.70;;;;;;;5.97;100.00;98682.94;5009735;28;20219;-70
2021/10/26 07:44:49;;;;;;;14.57;13.17;;;;;;;5.93;100.00;98685.00;4980109;28;20212;-71
2021/10/26 07:47:19;;;;;;;15.87;14.23;;;;;;;5.98;100.00;98680.22;5024562;28;20347;-69
2021/10/26 07:49:49;;;;;;;14.90;12.63;;;;;;;6.08;100.00;98689.09;5017763;28;21479;-71
2021/10/26 07:52:18;;;;;;;16.03;14.10;;;;;;;6.11;100.00;98695.94;4999400;28;20208;-69
2021/10/26 07:54:55;;;;;;;15.50;13.83;;;;;;;6.30;100.00;98686.59;5013490;28;20541;-71
2021/10/26 07:57:24;;;;;;;14.00;12.17;;;;;;;6.31;100.00;98697.00;5010748;28;20197;-72
2021/10/26 07:59:53;;;;;;;13.30;11.60;;;;;;;6.43;100.00;98700.47;4992479;28;20215;-71
2021/10/26 08:02:21;;;;;;;13.97;12.40;;;;;;;6.53;100.00;98699.75;5008698;28;20204;-69
2021/10/26 08:04:50;;;;;;;12.90;11.47;;;;;;;6.61;100.00;98702.63;5018973;28;20565;-70
2021/10/26 08:07:18;;;;;;;12.80;11.57;;;;;;;6.80;100.00;98709.91;4995552;28;20378;-69
2021/10/26 08:09:47;;;;;;;13.53;12.23;;;;;;;6.78;100.00;98709.19;5012306;28;20223;-71
2021/10/26 08:12:17;;;;;;;14.73;12.67;;;;;;;6.85;100.00;98713.00;5015418;28;20445;-70
2021/10/26 08:14:46;;;;;;;13.87;11.40;;;;;;;6.79;100.00;98721.41;5006441;28;20246;-72
2021/10/26 08:17:14;;;;;;;14.80;13.30;;;;;;;6.89;100.00;98724.16;5004766;28;20240;-71
2021/10/26 08:19:43;;;;;;;14.40;13.00;;;;;;;6.91;100.00;98723.03;5022452;28;20727;-71
2021/10/26 08:22:15;;;;;;;13.77;11.83;;;;;;;7.03;100.00;98717.78;5000151;28;20790;-70
2021/10/26 08:24:44;;;;;;;14.43;12.80;;;;;;;7.07;100.00;98724.47;5002377;28;20616;-70
2021/10/26 08:27:15;;;;;;;13.47;11.77;;;;;;;7.09;100.00;98722.53;5015591;28;20232;-69
2021/10/26 08:29:50;;;;;;;13.87;12.47;;;;;;;7.22;100.00;98711.84;5015976;28;20303;-71
2021/10/26 08:32:48;;;;;;;15.07;13.57;;;;;;;7.29;100.00;98710.38;4989412;28;20241;-69
2021/10/26 08:35:22;;;;;;;13.53;12.10;;;;;;;7.47;100.00;98710.66;5022254;28;21092;-69
2021/10/26 08:37:52;;;;;;;14.00;12.70;;;;;;;7.50;100.00;98715.69;4981353;28;20577;-70
2021/10/26 08:40:21;;;;;;;15.77;14.10;;;;;;;7.62;100.00;98713.00;5017558;28;20593;-69
2021/10/26 08:42:50;;;;;;;14.57;13.00;;;;;;;7.80;100.00;98707.97;5021188;28;20200;-70
2021/10/26 08:45:22;;;;;;;15.60;14.10;;;;;;;8.01;100.00;98704.50;5000742;28;20740;-70
2021/10/26 08:47:50;;;;;;;15.47;13.93;;;;;;;8.16;100.00;98699.72;5024008;28;20204;-70
2021/10/26 08:50:20;;;;;;;14.40;13.00;;;;;;;8.54;100.00;98698.25;5012768;28;20385;-70
2021/10/26 08:52:49;;;;;;;14.43;12.07;;;;;;;8.71;100.00;98698.56;4991277;28;20247;-68
2021/10/26 08:55:18;;;;;;;13.50;12.07;;;;;;;9.04;100.00;98694.75;5011767;28;20232;-70
2021/10/26 08:57:47;;;;;;;11.60;10.40;;;;;;;9.37;100.00;98694.50;5023575;28;20204;-70
2021/10/26 09:00:18;;;;;;;12.43;11.23;;;;;;;9.30;100.00;98693.41;5005405;28;20219;-71
2021/10/26 09:02:49;;;;;;;11.63;10.57;;;;;;;9.55;100.00;98694.66;5020142;28;20311;-71
2021/10/26 09:05:19;;;;;;;12.53;11.33;;;;;;;9.75;100.00;98697.25;5009702;28;20704;-69
2021/10/26 09:08:00;;;;;;;11.90;10.40;;;;;;;9.85;100.00;98696.28;4988447;28;20215;-70
2021/10/26 09:10:30;;;;;;;12.00;10.80;;;;;;;9.93;100.00;98694.72;5016857;28;20300;-70
2021/10/26 09:18:45;;;;;;;11.07;9.87;;;;;;;10.75;100.00;98697.69;5020494;28;20655;-71
2021/10/26 09:21:31;;;;;;;12.30;11.00;;;;;;;10.84;100.00;98695.97;5011634;28;20213;-72
2021/10/26 09:24:02;;;;;;;10.93;9.83;;;;;;;10.88;100.00;98699.13;4985985;28;20216;-72
2021/10/26 09:26:48;;;;;;;10.13;9.23;;;;;;;11.27;100.00;98681.16;5018810;28;20216;-69
2021/10/26 09:29:18;;;;;;;11.33;10.40;;;;;;;11.62;100.00;98685.75;5019205;28;20591;-70
2021/10/26 09:31:46;;;;;;;11.00;9.73;;;;;;;11.57;100.00;98672.94;5008838;28;20211;-70
2021/10/26 09:34:18;;;;;;;9.90;8.57;;;;;;;11.71;100.00;98680.34;5015329;28;20231;-71
2021/10/26 09:36:48;;;;;;;11.20;10.13;;;;;;;11.77;100.00;98670.94;5017602;28;20557;-70
2021/10/26 09:39:19;;;;;;;10.27;9.27;;;;;;;11.85;100.00;98672.81;4976385;28;20373;-72
2021/10/26 09:42:01;;;;;;;9.97;8.90;;;;;;;11.79;100.00;98671.59;5016850;28;20203;-70
2021/10/26 09:44:32;;;;;;;10.03;9.13;;;;;;;11.75;100.00;98670.25;5016641;28;20333;-70
2021/10/26 09:47:02;;;;;;;8.17;7.37;;;;;;;12.32;100.00;98676.94;5007892;28;20791;-71
2021/10/26 09:49:34;;;;;;;7.87;6.67;;;;;;;11.99;100.00;98680.19;5020443;28;20207;-70
2021/10/26 09:52:19;;;;;;;9.03;8.20;;;;;;;11.97;100.00;98682.19;5017049;28;20460;-71
2021/10/26 09:55:11;;;;;;;7.47;6.80;;;;;;;11.70;100.00;98686.63;4976780;28;20224;-70
2021/10/26 09:57:40;;;;;;;7.13;5.67;;;;;;;11.56;100.00;98690.69;5017386;28;20196;-70
2021/10/26 10:00:09;;;;;;;5.57;5.00;;;;;;;11.55;100.00;98691.69;5023218;28;20215;-72
2021/10/26 10:02:37;;;;;;;6.13;5.37;;;;;;;11.42;100.00;98688.56;5008826;28;20219;-70
2021/10/26 10:05:09;;;;;;;6.00;5.50;;;;;;;11.61;100.00;98684.09;5017177;28;20213;-71
2021/10/26 10:07:39;;;;;;;5.87;5.27;;;;;;;11.68;100.00;98688.59;5019657;28;20691;-70
2021/10/26 10:10:10;;;;;;;5.43;4.93;;;;;;;11.70;100.00;98693.78;4979365;28;20688;-71
2021/10/26 10:12:39;;;;;;;5.37;4.87;;;;;;;11.91;100.00;98685.47;5019839;28;20206;-70
2021/10/26 10:15:09;;;;;;;5.30;4.90;;;;;;;11.95;100.00;98686.00;5017823;28;20228;-72
2021/10/26 10:17:37;;;;;;;5.53;5.03;;;;;;;12.21;100.00;98686.03;5008978;28;20220;-70
2021/10/26 10:20:09;;;;;;;4.83;4.40;;;;;;;12.24;100.00;98692.84;5016047;28;20215;-71
2021/10/26 10:22:39;;;;;;;5.97;4.50;;;;;;;12.00;100.00;98689.88;5018987;28;20460;-70
2021/10/26 10:25:09;;;;;;;5.10;4.70;;;;;;;12.00;100.00;98689.88;4993615;28;20204;-73
2021/10/26 10:27:41;;;;;;;7.40;5.23;;;;;;;11.79;100.00;98687.53;5007102;28;20205;-70
2021/10/26 10:30:10;;;;;;;5.43;4.97;;;;;;;11.75;100.00;98698.63;5021255;28;20212;-71
2021/10/26 10:32:40;;;;;;;5.07;4.60;;;;;;;11.77;100.00;98692.16;5011374;28;20200;-71
2021/10/26 10:35:16;;;;;;;6.23;4.90;;;;;;;11.86;100.00;98696.53;5012231;28;20679;-71
2021/10/26 10:37:48;;;;;;;6.57;5.97;;;;;;;12.05;100.00;98693.88;5016648;28;20208;-71
2021/10/26 10:40:24;;;;;;;6.17;5.57;;;;;;;12.13;100.00;98692.13;4990293;28;20634;-70
2021/10/26 10:42:53;;;;;;;5.50;4.97;;;;;;;12.14;100.00;98698.28;5019703;28;20208;-70
2021/10/26 10:45:25;;;;;;;5.87;5.37;;;;;;;12.30;100.00;98693.03;4979921;28;20262;-70
2021/10/26 10:47:54;;;;;;;5.17;4.70;;;;;;;12.35;100.00;98695.25;5019465;28;20204;-71
2021/10/26 10:50:38;;;;;;;5.77;4.83;;;;;;;12.41;100.00;98683.13;5015576;28;20238;-70
2021/10/26 10:53:08;;;;;;;5.43;4.73;;;;;;;12.61;100.00;98689.03;5013615;28;20388;-70
2021/10/26 10:55:37;;;;;;;6.10;4.73;;;;;;;12.57;100.00;98685.88;5022082;28;20745;-70
2021/10/26 10:58:30;;;;;;;5.10;4.70;;;;;;;12.41;100.00;98683.97;5012345;28;20426;-70
2021/10/26 11:01:31;;;;;;;5.13;4.67;;;;;;;12.52;100.00;98684.66;4967331;28;20223;-72
2021/10/26 11:04:03;;;;;;;8.77;5.30;;;;;;;12.14;100.00;98683.16;4937894;28;20212;-69
2021/10/26 11:06:57;;;;;;;7.03;6.43;;;;;;;12.26;100.00;98682.88;4987762;28;20231;-69
2021/10/26 11:09:36;;;;;;;5.87;5.37;;;;;;;12.39;100.00;98680.63;5012600;28;20215;-70
2021/10/26 11:12:10;;;;;;;6.63;6.07;;;;;;;12.07;100.00;98681.28;5018221;28;20212;-70
2021/10/26 11:14:47;;;;;;;7.07;5.33;;;;;;;12.14;100.00;98685.81;5014869;28;20228;-70
2021/10/26 11:18:02;;;;;;;7.03;6.33;;;;;;;12.17;100.00;98682.00;5006174;28;20235;-71
2021/10/26 11:20:45;;;;;;;9.43;6.30;;;;;;;12.24;100.00;98674.22;5015473;28;20307;-70
2021/10/26 11:23:30;;;;;;;5.90;5.33;;;;;;;12.45;100.00;98669.38;5004083;28;20731;-70
2021/10/26 11:26:05;;;;;;;6.07;5.20;;;;;;;12.90;100.00;98673.69;5008067;28;20760;-72
2021/10/26 11:28:47;;;;;;;5.63;5.07;;;;;;;12.76;100.00;98673.28;5023018;28;20206;-70
2021/10/26 11:31:23;;;;;;;5.40;4.90;;;;;;;12.87;100.00;98682.81;4990006;28;20220;-71
2021/10/26 11:34:02;;;;;;;5.00;4.60;;;;;;;12.67;100.00;98676.91;5013461;28;20215;-71
2021/10/26 11:36:32;;;;;;;7.17;5.00;;;;;;;12.64;100.00;98672.75;5019197;28;20227;-71
2021/10/26 11:39:06;;;;;;;5.23;4.83;;;;;;;12.50;100.00;98671.56;5000129;28;20307;-70